Archival Weather

Tokyo Intl

Tokyo, Japan (RJTT)

Report from: Tuesday, November 21, 2023 12:30 PM JST
Current time: Sunday, February 25, 2024 1:09 AM JST

Current weather – Weather history – Daily summaries
Weather forecast

Temperature14.0°C (57.2°F)
Dew point5.0°C (41.0°F)
Winds 4 kts (2.1 m/s, 4.6 mph) Vrb
Winds variableWinds variable from Northeast (50°) to East-Southeast (110°)
Visibility6.2 mi. (10 km)
Clouds Few clouds 3,000 ft. (914 m)
Altimeter30.15 in.Hg (1021 mB)
Relative humidity55 %
Density altitude-252 ft. (-77 m)
Remarks No significant changes expected in the next two hours
Flight conditions Visual Meteorological Conditions
Raw dataRJTT 210330Z 08004KT 050V110 9999 FEW030 14/05 Q1021 NOSIG RMK 1CU030 A3018
An error has occurred. This application may no longer respond until reloaded. Reload 🗙